sensor_id;sensor_type;location;lat;lon;timestamp;pressure;altitude;pressure_sealevel;temperature;humidity
14882;BME280;7533;51.278;12.588;2023-07-13T00:00:13;99792.22;;;30.90;46.96
14882;BME280;7533;51.278;12.588;2023-07-13T00:05:17;99791.44;;;30.81;47.17
14882;BME280;7533;51.278;12.588;2023-07-13T00:10:22;99790.81;;;30.71;47.15
14882;BME280;7533;51.278;12.588;2023-07-13T00:15:26;99803.81;;;30.61;47.44
14882;BME280;7533;51.278;12.588;2023-07-13T00:20:31;99824.66;;;30.54;47.50
14882;BME280;7533;51.278;12.588;2023-07-13T00:25:36;99831.69;;;30.48;48.07
14882;BME280;7533;51.278;12.588;2023-07-13T00:30:39;99838.03;;;30.41;48.25
14882;BME280;7533;51.278;12.588;2023-07-13T00:35:42;99844.31;;;30.41;48.30
14882;BME280;7533;51.278;12.588;2023-07-13T00:40:48;99847.75;;;30.43;48.47
14882;BME280;7533;51.278;12.588;2023-07-13T00:46:19;99846.16;;;30.57;48.67
14882;BME280;7533;51.278;12.588;2023-07-13T00:51:28;99853.69;;;30.47;48.58
14882;BME280;7533;51.278;12.588;2023-07-13T00:56:35;99861.63;;;30.25;48.97
14882;BME280;7533;51.278;12.588;2023-07-13T01:01:39;99858.91;;;30.25;49.42
14882;BME280;7533;51.278;12.588;2023-07-13T01:06:42;99851.56;;;30.26;48.97
14882;BME280;7533;51.278;12.588;2023-07-13T01:11:48;99844.69;;;30.38;49.20
14882;BME280;7533;51.278;12.588;2023-07-13T01:16:51;99833.63;;;30.32;49.28
14882;BME280;7533;51.278;12.588;2023-07-13T01:21:55;99832.22;;;30.36;49.27
14882;BME280;7533;51.278;12.588;2023-07-13T01:27:04;99824.25;;;30.18;49.67
14882;BME280;7533;51.278;12.588;2023-07-13T01:32:09;99837.56;;;30.04;49.17
14882;BME280;7533;51.278;12.588;2023-07-13T01:37:13;99850.91;;;29.83;49.56
14882;BME280;7533;51.278;12.588;2023-07-13T01:42:16;99861.50;;;29.70;50.48
14882;BME280;7533;51.278;12.588;2023-07-13T01:47:19;99854.50;;;29.59;50.34
14882;BME280;7533;51.278;12.588;2023-07-13T01:52:23;99852.63;;;29.60;51.10
14882;BME280;7533;51.278;12.588;2023-07-13T01:57:26;99857.38;;;29.74;51.61
14882;BME280;7533;51.278;12.588;2023-07-13T02:02:29;99857.38;;;29.74;52.09
14882;BME280;7533;51.278;12.588;2023-07-13T02:07:33;99874.78;;;29.65;52.08
14882;BME280;7533;51.278;12.588;2023-07-13T02:12:38;99878.81;;;29.44;53.07
14882;BME280;7533;51.278;12.588;2023-07-13T02:17:41;99886.06;;;29.11;55.01
14882;BME280;7533;51.278;12.588;2023-07-13T02:22:45;99846.78;;;29.38;54.17
14882;BME280;7533;51.278;12.588;2023-07-13T02:27:48;99852.91;;;29.32;53.48
14882;BME280;7533;51.278;12.588;2023-07-13T02:32:51;99853.44;;;29.44;52.77
14882;BME280;7533;51.278;12.588;2023-07-13T02:37:56;99856.31;;;29.26;52.17
14882;BME280;7533;51.278;12.588;2023-07-13T02:42:59;99846.78;;;29.38;52.75
14882;BME280;7533;51.278;12.588;2023-07-13T02:48:01;99852.22;;;29.38;52.45
14882;BME280;7533;51.278;12.588;2023-07-13T02:53:06;99852.69;;;29.17;52.72
14882;BME280;7533;51.278;12.588;2023-07-13T02:58:09;99856.31;;;28.84;52.46
14882;BME280;7533;51.278;12.588;2023-07-13T03:03:12;99864.59;;;28.66;51.90
14882;BME280;7533;51.278;12.588;2023-07-13T03:08:18;99864.75;;;28.64;52.39
14882;BME280;7533;51.278;12.588;2023-07-13T03:13:22;99865.06;;;28.53;52.67
14882;BME280;7533;51.278;12.588;2023-07-13T03:18:26;99865.97;;;28.70;52.37
14882;BME280;7533;51.278;12.588;2023-07-13T03:23:35;99879.34;;;28.55;52.75
14882;BME280;7533;51.278;12.588;2023-07-13T03:28:39;99883.53;;;28.41;53.54
14882;BME280;7533;51.278;12.588;2023-07-13T03:33:46;99901.88;;;28.39;53.63
14882;BME280;7533;51.278;12.588;2023-07-13T03:38:53;99893.75;;;28.21;54.75
14882;BME280;7533;51.278;12.588;2023-07-13T03:44:00;99895.94;;;28.36;55.12
14882;BME280;7533;51.278;12.588;2023-07-13T03:49:04;99903.56;;;28.32;54.83
14882;BME280;7533;51.278;12.588;2023-07-13T03:54:09;99904.13;;;28.18;54.86
14882;BME280;7533;51.278;12.588;2023-07-13T03:59:11;99912.47;;;27.99;54.77
14882;BME280;7533;51.278;12.588;2023-07-13T04:04:14;99922.19;;;27.83;54.95
14882;BME280;7533;51.278;12.588;2023-07-13T04:09:19;99916.13;;;27.72;54.66
14882;BME280;7533;51.278;12.588;2023-07-13T04:14:22;99916.81;;;27.56;54.99
14882;BME280;7533;51.278;12.588;2023-07-13T04:19:25;99911.75;;;27.43;55.25
14882;BME280;7533;51.278;12.588;2023-07-13T04:24:29;99933.31;;;27.27;55.67
14882;BME280;7533;51.278;12.588;2023-07-13T04:29:32;99933.19;;;27.28;55.97
14882;BME280;7533;51.278;12.588;2023-07-13T04:34:35;99918.63;;;27.20;56.06
14882;BME280;7533;51.278;12.588;2023-07-13T04:39:39;99923.50;;;27.16;55.57
14882;BME280;7533;51.278;12.588;2023-07-13T04:44:47;99928.38;;;27.22;54.81
14882;BME280;7533;51.278;12.588;2023-07-13T04:49:50;99927.25;;;27.15;55.00
14882;BME280;7533;51.278;12.588;2023-07-13T04:54:54;99937.44;;;27.03;55.34
14882;BME280;7533;51.278;12.588;2023-07-13T04:59:57;99936.41;;;27.04;54.59
14882;BME280;7533;51.278;12.588;2023-07-13T05:05:03;99935.88;;;27.01;53.83
14882;BME280;7533;51.278;12.588;2023-07-13T05:10:10;99948.22;;;26.95;54.11
14882;BME280;7533;51.278;12.588;2023-07-13T05:15:13;99945.34;;;26.97;54.15
14882;BME280;7533;51.278;12.588;2023-07-13T05:20:17;99952.66;;;26.86;54.32
14882;BME280;7533;51.278;12.588;2023-07-13T05:25:22;99948.81;;;26.89;55.01
14882;BME280;7533;51.278;12.588;2023-07-13T05:30:25;99955.50;;;26.95;54.91
14882;BME280;7533;51.278;12.588;2023-07-13T05:35:27;99958.94;;;26.87;55.53
14882;BME280;7533;51.278;12.588;2023-07-13T05:40:32;99958.69;;;26.80;55.08
14882;BME280;7533;51.278;12.588;2023-07-13T05:45:35;99955.03;;;26.72;54.82
14882;BME280;7533;51.278;12.588;2023-07-13T05:50:38;99963.38;;;26.41;55.93
14882;BME280;7533;51.278;12.588;2023-07-13T05:55:43;99963.06;;;26.54;56.25
14882;BME280;7533;51.278;12.588;2023-07-13T06:00:58;99965.56;;;26.75;55.65
14882;BME280;7533;51.278;12.588;2023-07-13T06:06:01;99961.00;;;26.75;54.61
14882;BME280;7533;51.278;12.588;2023-07-13T06:11:07;99968.78;;;26.88;54.76
14882;BME280;7533;51.278;12.588;2023-07-13T06:16:13;99959.78;;;26.87;54.36
14882;BME280;7533;51.278;12.588;2023-07-13T06:21:17;99964.09;;;26.90;54.64
14882;BME280;7533;51.278;12.588;2023-07-13T06:26:23;99962.81;;;26.84;54.61
14882;BME280;7533;51.278;12.588;2023-07-13T06:31:26;99969.13;;;26.85;54.35
14882;BME280;7533;51.278;12.588;2023-07-13T06:36:28;99976.84;;;26.80;54.38
14882;BME280;7533;51.278;12.588;2023-07-13T06:41:33;99985.34;;;26.67;54.77
14882;BME280;7533;51.278;12.588;2023-07-13T06:46:37;99984.56;;;26.84;53.86
14882;BME280;7533;51.278;12.588;2023-07-13T06:51:39;99988.22;;;26.93;52.85
14882;BME280;7533;51.278;12.588;2023-07-13T06:56:44;99989.31;;;26.73;52.68
14882;BME280;7533;51.278;12.588;2023-07-13T07:01:46;100002.63;;;26.66;53.35
14882;BME280;7533;51.278;12.588;2023-07-13T07:06:50;100003.59;;;26.65;53.22
14882;BME280;7533;51.278;12.588;2023-07-13T07:11:54;99992.09;;;26.90;52.82
14882;BME280;7533;51.278;12.588;2023-07-13T07:17:05;99993.81;;;26.92;52.89
14882;BME280;7533;51.278;12.588;2023-07-13T07:22:08;100005.97;;;26.87;52.49
14882;BME280;7533;51.278;12.588;2023-07-13T07:27:12;100011.13;;;26.81;50.95
14882;BME280;7533;51.278;12.588;2023-07-13T07:32:19;100011.81;;;26.93;50.54
14882;BME280;7533;51.278;12.588;2023-07-13T07:37:25;100009.00;;;26.84;48.83
14882;BME280;7533;51.278;12.588;2023-07-13T07:42:32;100005.09;;;27.06;49.21
14882;BME280;7533;51.278;12.588;2023-07-13T07:47:35;100002.00;;;27.19;49.17
14882;BME280;7533;51.278;12.588;2023-07-13T07:52:38;100012.78;;;27.11;48.67
14882;BME280;7533;51.278;12.588;2023-07-13T07:57:42;100011.22;;;27.08;48.49
14882;BME280;7533;51.278;12.588;2023-07-13T08:02:48;100015.03;;;27.15;48.77
14882;BME280;7533;51.278;12.588;2023-07-13T08:07:54;100012.28;;;27.25;48.57
14882;BME280;7533;51.278;12.588;2023-07-13T08:12:59;100008.25;;;27.29;48.27
14882;BME280;7533;51.278;12.588;2023-07-13T08:18:04;100012.19;;;27.45;48.19
14882;BME280;7533;51.278;12.588;2023-07-13T08:23:10;100013.78;;;27.37;48.70
14882;BME280;7533;51.278;12.588;2023-07-13T08:28:14;100017.91;;;27.41;48.88
14882;BME280;7533;51.278;12.588;2023-07-13T08:33:17;100021.44;;;27.52;49.26
14882;BME280;7533;51.278;12.588;2023-07-13T08:38:20;100021.31;;;27.43;48.83
14882;BME280;7533;51.278;12.588;2023-07-13T08:43:35;100020.56;;;27.33;48.95
14882;BME280;7533;51.278;12.588;2023-07-13T08:48:56;100025.00;;;27.52;48.33
14882;BME280;7533;51.278;12.588;2023-07-13T08:54:02;100025.06;;;27.42;47.37
14882;BME280;7533;51.278;12.588;2023-07-13T08:59:12;100034.59;;;27.29;47.74
14882;BME280;7533;51.278;12.588;2023-07-13T09:04:18;100026.84;;;27.34;47.94
14882;BME280;7533;51.278;12.588;2023-07-13T09:09:30;100036.06;;;27.13;46.68
14882;BME280;7533;51.278;12.588;2023-07-13T09:14:42;100030.78;;;27.02;47.10
14882;BME280;7533;51.278;12.588;2023-07-13T09:19:48;100025.50;;;27.10;46.25
14882;BME280;7533;51.278;12.588;2023-07-13T09:25:01;100035.66;;;26.99;47.48
14882;BME280;7533;51.278;12.588;2023-07-13T09:30:23;100023.81;;;27.00;47.33
14882;BME280;7533;51.278;12.588;2023-07-13T09:35:29;100022.75;;;27.20;47.35
14882;BME280;7533;51.278;12.588;2023-07-13T09:40:43;100034.97;;;27.06;46.79
14882;BME280;7533;51.278;12.588;2023-07-13T09:45:49;100014.31;;;27.23;46.56
14882;BME280;7533;51.278;12.588;2023-07-13T09:50:54;100034.06;;;27.15;46.02
14882;BME280;7533;51.278;12.588;2023-07-13T09:55:58;100033.19;;;27.15;45.15
14882;BME280;7533;51.278;12.588;2023-07-13T10:01:04;100028.75;;;27.24;44.88
14882;BME280;7533;51.278;12.588;2023-07-13T10:06:12;100034.22;;;27.14;44.51
14882;BME280;7533;51.278;12.588;2023-07-13T10:11:20;100022.94;;;27.09;44.50
14882;BME280;7533;51.278;12.588;2023-07-13T10:16:28;100043.06;;;27.16;44.82
14882;BME280;7533;51.278;12.588;2023-07-13T10:21:49;100037.59;;;27.53;44.57
14882;BME280;7533;51.278;12.588;2023-07-13T10:26:56;100046.16;;;27.58;44.30
14882;BME280;7533;51.278;12.588;2023-07-13T10:32:02;100044.22;;;27.68;44.74
14882;BME280;7533;51.278;12.588;2023-07-13T10:37:23;100045.97;;;27.70;44.35
14882;BME280;7533;51.278;12.588;2023-07-13T10:42:31;100040.88;;;27.84;44.22
14882;BME280;7533;51.278;12.588;2023-07-13T10:47:38;100041.78;;;27.93;44.68
14882;BME280;7533;51.278;12.588;2023-07-13T10:52:46;100039.56;;;28.06;44.71
14882;BME280;7533;51.278;12.588;2023-07-13T10:58:00;100029.75;;;28.13;43.85
14882;BME280;7533;51.278;12.588;2023-07-13T11:03:04;100024.16;;;28.15;43.21
14882;BME280;7533;51.278;12.588;2023-07-13T11:08:21;100024.06;;;28.25;43.61
14882;BME280;7533;51.278;12.588;2023-07-13T11:13:57;100039.78;;;28.31;43.36
14882;BME280;7533;51.278;12.588;2023-07-13T11:19:27;100023.53;;;28.39;42.84
14882;BME280;7533;51.278;12.588;2023-07-13T11:24:53;100022.91;;;28.45;42.49
14882;BME280;7533;51.278;12.588;2023-07-13T11:30:21;100028.59;;;28.52;42.46
14882;BME280;7533;51.278;12.588;2023-07-13T11:35:34;100028.34;;;28.63;43.22
14882;BME280;7533;51.278;12.588;2023-07-13T11:40:44;100024.25;;;28.67;43.50
14882;BME280;7533;51.278;12.588;2023-07-13T11:45:55;100012.41;;;28.76;43.97
14882;BME280;7533;51.278;12.588;2023-07-13T11:51:03;100008.50;;;28.79;43.36
14882;BME280;7533;51.278;12.588;2023-07-13T11:56:07;99997.66;;;28.87;42.95
14882;BME280;7533;51.278;12.588;2023-07-13T12:01:16;100010.59;;;28.85;42.67
14882;BME280;7533;51.278;12.588;2023-07-13T12:06:30;100014.69;;;28.89;42.68
14882;BME280;7533;51.278;12.588;2023-07-13T12:11:37;100029.34;;;28.88;42.78
14882;BME280;7533;51.278;12.588;2023-07-13T12:16:50;100003.53;;;29.00;43.00
14882;BME280;7533;51.278;12.588;2023-07-13T12:21:58;100002.75;;;29.08;43.33
14882;BME280;7533;51.278;12.588;2023-07-13T12:27:19;99999.50;;;29.12;43.05
14882;BME280;7533;51.278;12.588;2023-07-13T12:32:24;100004.84;;;29.22;43.82
14882;BME280;7533;51.278;12.588;2023-07-13T12:37:34;99992.44;;;29.28;43.89
14882;BME280;7533;51.278;12.588;2023-07-13T12:42:38;100004.72;;;29.32;44.53
14882;BME280;7533;51.278;12.588;2023-07-13T12:47:46;100004.53;;;29.33;44.75
14882;BME280;7533;51.278;12.588;2023-07-13T12:52:53;99995.69;;;29.39;45.19
14882;BME280;7533;51.278;12.588;2023-07-13T12:57:58;100007.34;;;29.49;46.18
14882;BME280;7533;51.278;12.588;2023-07-13T13:03:04;100004.31;;;29.53;46.25
14882;BME280;7533;51.278;12.588;2023-07-13T13:08:27;100015.22;;;29.53;48.33
14882;BME280;7533;51.278;12.588;2023-07-13T13:13:30;100000.94;;;29.59;48.72
14882;BME280;7533;51.278;12.588;2023-07-13T13:18:33;99995.81;;;29.64;49.22
14882;BME280;7533;51.278;12.588;2023-07-13T13:23:39;99999.91;;;29.68;49.91
14882;BME280;7533;51.278;12.588;2023-07-13T13:28:42;100001.28;;;29.72;50.81
14882;BME280;7533;51.278;12.588;2023-07-13T13:33:46;99990.72;;;29.77;50.24
14882;BME280;7533;51.278;12.588;2023-07-13T13:38:51;100001.81;;;29.84;50.72
14882;BME280;7533;51.278;12.588;2023-07-13T13:43:54;100013.94;;;29.89;51.75
14882;BME280;7533;51.278;12.588;2023-07-13T13:48:57;100012.59;;;29.93;51.54
14882;BME280;7533;51.278;12.588;2023-07-13T13:54:02;100016.69;;;29.97;51.26
14882;BME280;7533;51.278;12.588;2023-07-13T13:59:04;100027.78;;;30.04;51.81
14882;BME280;7533;51.278;12.588;2023-07-13T14:04:14;100019.94;;;30.09;51.75
14882;BME280;7533;51.278;12.588;2023-07-13T14:09:20;100022.66;;;30.09;51.80
14882;BME280;7533;51.278;12.588;2023-07-13T14:14:24;100039.25;;;30.16;52.16
14882;BME280;7533;51.278;12.588;2023-07-13T14:19:29;100023.22;;;30.21;52.39
14882;BME280;7533;51.278;12.588;2023-07-13T14:24:33;100022.84;;;30.24;51.65
14882;BME280;7533;51.278;12.588;2023-07-13T14:29:36;100022.53;;;30.27;51.92
14882;BME280;7533;51.278;12.588;2023-07-13T14:34:39;100030.72;;;30.27;51.98
14882;BME280;7533;51.278;12.588;2023-07-13T14:39:52;100024.22;;;30.28;52.41
14882;BME280;7533;51.278;12.588;2023-07-13T14:44:56;100026.31;;;30.42;52.08
14882;BME280;7533;51.278;12.588;2023-07-13T14:49:59;100021.19;;;30.47;51.92
14882;BME280;7533;51.278;12.588;2023-07-13T14:55:10;100015.88;;;30.46;51.81
14882;BME280;7533;51.278;12.588;2023-07-13T15:00:14;100008.00;;;30.51;52.01
14882;BME280;7533;51.278;12.588;2023-07-13T15:05:19;100013.66;;;30.49;52.26
14882;BME280;7533;51.278;12.588;2023-07-13T15:10:27;100019.78;;;30.60;52.10
14882;BME280;7533;51.278;12.588;2023-07-13T15:15:32;100018.41;;;30.55;52.00
14882;BME280;7533;51.278;12.588;2023-07-13T15:20:36;100017.38;;;30.56;52.04
14882;BME280;7533;51.278;12.588;2023-07-13T15:25:42;100011.41;;;30.61;51.98
14882;BME280;7533;51.278;12.588;2023-07-13T15:30:48;100008.88;;;30.60;52.19
14882;BME280;7533;51.278;12.588;2023-07-13T15:35:54;100021.69;;;30.75;52.29
14882;BME280;7533;51.278;12.588;2023-07-13T15:40:58;100017.88;;;30.85;51.90
14882;BME280;7533;51.278;12.588;2023-07-13T15:46:02;100012.59;;;30.83;52.04
14882;BME280;7533;51.278;12.588;2023-07-13T15:51:10;100022.84;;;30.89;51.91
14882;BME280;7533;51.278;12.588;2023-07-13T15:56:19;100020.94;;;30.98;52.03
14882;BME280;7533;51.278;12.588;2023-07-13T16:01:24;100018.00;;;31.07;52.16
14882;BME280;7533;51.278;12.588;2023-07-13T16:06:31;100026.50;;;31.29;52.00
14882;BME280;7533;51.278;12.588;2023-07-13T16:11:38;100028.22;;;31.14;52.49
14882;BME280;7533;51.278;12.588;2023-07-13T16:16:42;100032.13;;;31.19;52.50
14882;BME280;7533;51.278;12.588;2023-07-13T16:21:48;100027.22;;;31.54;52.37
14882;BME280;7533;51.278;12.588;2023-07-13T16:26:54;100025.44;;;31.38;53.14
14882;BME280;7533;51.278;12.588;2023-07-13T16:32:00;100034.41;;;31.55;53.74
14882;BME280;7533;51.278;12.588;2023-07-13T16:37:15;100039.56;;;31.50;54.28
14882;BME280;7533;51.278;12.588;2023-07-13T16:42:20;100041.81;;;31.46;53.89
14882;BME280;7533;51.278;12.588;2023-07-13T16:47:24;100036.06;;;31.33;53.73
14882;BME280;7533;51.278;12.588;2023-07-13T16:52:27;100042.72;;;31.30;54.16
14882;BME280;7533;51.278;12.588;2023-07-13T16:57:32;100042.59;;;31.16;54.16
14882;BME280;7533;51.278;12.588;2023-07-13T17:02:37;100046.16;;;31.32;53.98
14882;BME280;7533;51.278;12.588;2023-07-13T17:07:41;100044.28;;;31.25;53.84
14882;BME280;7533;51.278;12.588;2023-07-13T17:12:46;100050.75;;;31.24;53.63
14882;BME280;7533;51.278;12.588;2023-07-13T17:17:50;100059.31;;;31.29;53.34
14882;BME280;7533;51.278;12.588;2023-07-13T17:22:53;100063.56;;;31.40;52.58
14882;BME280;7533;51.278;12.588;2023-07-13T17:27:58;100059.31;;;31.29;51.86
14882;BME280;7533;51.278;12.588;2023-07-13T17:33:01;100063.75;;;31.22;51.84
14882;BME280;7533;51.278;12.588;2023-07-13T17:38:05;100064.78;;;31.13;51.28
14882;BME280;7533;51.278;12.588;2023-07-13T17:43:10;100073.38;;;31.10;52.43
14882;BME280;7533;51.278;12.588;2023-07-13T17:48:13;100075.25;;;31.09;51.31
14882;BME280;7533;51.278;12.588;2023-07-13T17:53:17;100081.38;;;31.03;51.93
14882;BME280;7533;51.278;12.588;2023-07-13T17:58:21;100079.88;;;31.00;51.93
14882;BME280;7533;51.278;12.588;2023-07-13T18:03:27;100088.41;;;30.97;51.09
14882;BME280;7533;51.278;12.588;2023-07-13T18:08:34;100087.41;;;30.90;51.13
14882;BME280;7533;51.278;12.588;2023-07-13T18:13:39;100088.44;;;30.89;50.50
14882;BME280;7533;51.278;12.588;2023-07-13T18:18:42;100092.38;;;30.87;51.10
14882;BME280;7533;51.278;12.588;2023-07-13T18:23:46;100096.66;;;30.81;50.78
14882;BME280;7533;51.278;12.588;2023-07-13T18:28:52;100095.59;;;30.74;49.35
14882;BME280;7533;51.278;12.588;2023-07-13T18:33:55;100104.31;;;30.69;49.05
14882;BME280;7533;51.278;12.588;2023-07-13T18:38:59;100112.00;;;30.66;47.84
14882;BME280;7533;51.278;12.588;2023-07-13T18:44:03;100107.88;;;30.62;47.43
14882;BME280;7533;51.278;12.588;2023-07-13T18:49:08;100117.78;;;30.63;47.63
14882;BME280;7533;51.278;12.588;2023-07-13T18:54:14;100121.91;;;30.59;47.27
14882;BME280;7533;51.278;12.588;2023-07-13T18:59:18;100130.41;;;30.55;46.62
14882;BME280;7533;51.278;12.588;2023-07-13T19:04:29;100133.31;;;30.62;46.53
14882;BME280;7533;51.278;12.588;2023-07-13T19:09:32;100144.31;;;30.70;46.51
14882;BME280;7533;51.278;12.588;2023-07-13T19:14:36;100157.06;;;30.62;46.05
14882;BME280;7533;51.278;12.588;2023-07-13T19:19:39;100185.06;;;30.64;46.35
14882;BME280;7533;51.278;12.588;2023-07-13T19:24:42;100192.06;;;30.66;46.30
14882;BME280;7533;51.278;12.588;2023-07-13T19:29:47;100218.22;;;30.69;46.53
14882;BME280;7533;51.278;12.588;2023-07-13T19:34:49;100227.97;;;30.71;46.41
14882;BME280;7533;51.278;12.588;2023-07-13T19:39:54;100231.91;;;30.77;46.79
14882;BME280;7533;51.278;12.588;2023-07-13T19:44:59;100236.53;;;30.85;46.90
14882;BME280;7533;51.278;12.588;2023-07-13T19:50:02;100255.47;;;30.86;46.85
14882;BME280;7533;51.278;12.588;2023-07-13T19:55:18;100263.34;;;30.89;46.74
14882;BME280;7533;51.278;12.588;2023-07-13T20:00:26;100271.91;;;30.94;46.98
14882;BME280;7533;51.278;12.588;2023-07-13T20:05:29;100276.69;;;31.00;47.14
14882;BME280;7533;51.278;12.588;2023-07-13T20:10:35;100295.31;;;31.05;46.92
14882;BME280;7533;51.278;12.588;2023-07-13T20:15:39;100296.69;;;31.09;46.94
14882;BME280;7533;51.278;12.588;2023-07-13T20:20:44;100298.56;;;31.17;46.93
14882;BME280;7533;51.278;12.588;2023-07-13T20:25:50;100311.22;;;31.18;46.98
14882;BME280;7533;51.278;12.588;2023-07-13T20:30:54;100304.72;;;31.19;47.16
14882;BME280;7533;51.278;12.588;2023-07-13T20:36:02;100316.00;;;31.24;47.13
14882;BME280;7533;51.278;12.588;2023-07-13T20:41:05;100323.91;;;31.27;47.19
14882;BME280;7533;51.278;12.588;2023-07-13T20:46:14;100321.34;;;31.33;47.05
14882;BME280;7533;51.278;12.588;2023-07-13T20:51:19;100324.94;;;31.34;47.34
14882;BME280;7533;51.278;12.588;2023-07-13T20:56:31;100323.59;;;31.38;47.22
14882;BME280;7533;51.278;12.588;2023-07-13T21:01:37;100330.56;;;31.41;47.39
14882;BME280;7533;51.278;12.588;2023-07-13T21:06:40;100326.47;;;31.45;47.10
14882;BME280;7533;51.278;12.588;2023-07-13T21:11:43;100330.25;;;31.44;47.28
14882;BME280;7533;51.278;12.588;2023-07-13T21:16:47;100330.41;;;31.42;47.12
14882;BME280;7533;51.278;12.588;2023-07-13T21:21:50;100342.38;;;31.41;47.11
14882;BME280;7533;51.278;12.588;2023-07-13T21:26:54;100348.88;;;31.40;47.37
14882;BME280;7533;51.278;12.588;2023-07-13T21:31:59;100357.41;;;31.37;47.09
14882;BME280;7533;51.278;12.588;2023-07-13T21:37:02;100362.88;;;31.37;47.43
14882;BME280;7533;51.278;12.588;2023-07-13T21:42:07;100364.94;;;31.27;47.12
14882;BME280;7533;51.278;12.588;2023-07-13T21:47:12;100359.41;;;31.11;45.55
14882;BME280;7533;51.278;12.588;2023-07-13T21:52:16;100364.47;;;30.97;45.19
14882;BME280;7533;51.278;12.588;2023-07-13T21:57:20;100364.13;;;30.84;45.34
14882;BME280;7533;51.278;12.588;2023-07-13T22:02:24;100366.66;;;30.77;45.27
14882;BME280;7533;51.278;12.588;2023-07-13T22:07:27;100368.19;;;30.72;45.08
14882;BME280;7533;51.278;12.588;2023-07-13T22:12:30;100371.34;;;30.59;45.70
14882;BME280;7533;51.278;12.588;2023-07-13T22:17:34;100366.56;;;30.61;45.51
14882;BME280;7533;51.278;12.588;2023-07-13T22:22:37;100369.63;;;30.58;45.96
14882;BME280;7533;51.278;12.588;2023-07-13T22:27:40;100373.53;;;30.55;45.89
14882;BME280;7533;51.278;12.588;2023-07-13T22:32:44;100369.09;;;30.54;45.69
14882;BME280;7533;51.278;12.588;2023-07-13T22:37:47;100382.19;;;30.43;46.44
14882;BME280;7533;51.278;12.588;2023-07-13T22:42:50;100386.94;;;30.41;46.57
14882;BME280;7533;51.278;12.588;2023-07-13T22:47:54;100383.94;;;30.52;46.38
14882;BME280;7533;51.278;12.588;2023-07-13T22:52:57;100381.16;;;30.44;46.34
14882;BME280;7533;51.278;12.588;2023-07-13T22:58:00;100389.09;;;30.29;46.23
14882;BME280;7533;51.278;12.588;2023-07-13T23:03:05;100391.78;;;30.21;46.53
14882;BME280;7533;51.278;12.588;2023-07-13T23:08:11;100403.75;;;30.20;46.51
14882;BME280;7533;51.278;12.588;2023-07-13T23:13:15;100395.56;;;30.20;46.97
14882;BME280;7533;51.278;12.588;2023-07-13T23:18:19;100389.84;;;30.13;46.51
14882;BME280;7533;51.278;12.588;2023-07-13T23:23:22;100392.34;;;30.07;46.91
14882;BME280;7533;51.278;12.588;2023-07-13T23:28:25;100391.19;;;30.09;47.23
14882;BME280;7533;51.278;12.588;2023-07-13T23:33:30;100394.31;;;29.96;47.01
14882;BME280;7533;51.278;12.588;2023-07-13T23:38:33;100398.00;;;29.87;47.44
14882;BME280;7533;51.278;12.588;2023-07-13T23:43:36;100402.22;;;29.82;47.35
14882;BME280;7533;51.278;12.588;2023-07-13T23:48:40;100393.44;;;29.70;47.55
14882;BME280;7533;51.278;12.588;2023-07-13T23:53:43;100401.63;;;29.70;47.48
14882;BME280;7533;51.278;12.588;2023-07-13T23:58:46;100393.50;;;29.78;47.97
